createdAt,value
2018-04-08T00:00:08.699Z,48.18
2018-04-08T00:01:08.708Z,48.18
2018-04-08T00:02:08.717Z,48.28
2018-04-08T00:03:08.732Z,48.18
2018-04-08T00:04:08.746Z,48.09
2018-04-08T00:05:08.756Z,48.95
2018-04-08T00:06:08.760Z,48.75
2018-04-08T00:07:08.768Z,48.66
2018-04-08T00:08:08.781Z,48.75
2018-04-08T00:09:08.802Z,48.75
2018-04-08T00:10:08.801Z,48.73
2018-04-08T00:11:08.819Z,48.75
2018-04-08T00:12:08.836Z,48.66
2018-04-08T00:13:08.827Z,48.85
2018-04-08T00:14:08.852Z,49.04
2018-04-08T00:15:08.858Z,48.85
2018-04-08T00:16:08.867Z,48.85
2018-04-08T00:17:08.871Z,48.66
2018-04-08T00:18:08.883Z,48.75
2018-04-08T00:19:08.933Z,48.66
2018-04-08T00:20:08.923Z,49.02
2018-04-08T00:21:08.934Z,48.95
2018-04-08T00:22:08.936Z,48.54
2018-04-08T00:23:08.940Z,48.54
2018-04-08T00:24:08.942Z,48.66
2018-04-08T00:25:08.945Z,48.54
2018-04-08T00:26:08.965Z,48.73
2018-04-08T00:27:08.973Z,48.83
2018-04-08T00:28:08.986Z,49.78
2018-04-08T00:29:09.085Z,50.07
2018-04-08T00:30:09.045Z,49.88
2018-04-08T00:31:09.013Z,49.59
2018-04-08T00:32:09.023Z,49.30
2018-04-08T00:33:09.031Z,49.30
2018-04-08T00:34:09.042Z,49.59
2018-04-08T00:35:09.051Z,49.98
2018-04-08T00:36:09.064Z,49.98
2018-04-08T00:37:09.067Z,49.88
2018-04-08T00:38:09.093Z,49.78
2018-04-08T00:39:09.093Z,49.98
2018-04-08T00:40:09.107Z,50.45
2018-04-08T00:41:09.115Z,50.26
2018-04-08T00:42:09.131Z,50.45
2018-04-08T00:43:09.133Z,50.45
2018-04-08T00:44:09.839Z,50.35
2018-04-08T00:45:09.157Z,50.64
2018-04-08T00:46:09.162Z,50.64
2018-04-08T00:47:09.182Z,50.55
2018-04-08T00:48:09.182Z,50.74
2018-04-08T00:49:09.206Z,50.84
2018-04-08T00:50:09.205Z,50.71
2018-04-08T00:51:09.269Z,50.62
2018-04-08T00:52:09.222Z,50.62
2018-04-08T00:53:09.241Z,50.71
2018-04-08T00:54:09.250Z,50.33
2018-04-08T00:55:09.259Z,50.45
2018-04-08T00:56:09.267Z,50.35
2018-04-08T00:57:09.272Z,50.43
2018-04-08T00:58:09.282Z,50.26
2018-04-08T00:59:09.285Z,50.43
2018-04-08T01:00:09.303Z,50.62
2018-04-08T01:01:09.311Z,50.33
2018-04-08T01:02:09.316Z,50.71
2018-04-08T01:03:09.331Z,50.90
2018-04-08T01:04:09.341Z,51.07
2018-04-08T01:05:09.351Z,51.29
2018-04-08T01:06:09.366Z,51.29
2018-04-08T01:07:09.380Z,51.38
2018-04-08T01:08:09.387Z,50.90
2018-04-08T01:09:09.387Z,50.90
2018-04-08T01:10:09.401Z,51.38
2018-04-08T01:11:09.404Z,50.71
2018-04-08T01:12:09.441Z,50.43
2018-04-08T01:13:09.424Z,50.52
2018-04-08T01:14:09.434Z,50.62
2018-04-08T01:15:09.445Z,50.62
2018-04-08T01:16:09.456Z,51.29
2018-04-08T01:17:09.591Z,51.38
2018-04-08T01:18:09.472Z,51.29
2018-04-08T01:19:09.483Z,51.38
2018-04-08T01:20:09.502Z,51.19
2018-04-08T01:21:09.503Z,51.76
2018-04-08T01:22:09.512Z,51.76
2018-04-08T01:23:09.522Z,51.95
2018-04-08T01:24:09.533Z,51.76
2018-04-08T01:25:09.543Z,51.76
2018-04-08T01:26:09.556Z,51.57
2018-04-08T01:27:09.570Z,51.86
2018-04-08T01:28:09.570Z,51.86
2018-04-08T01:29:09.582Z,51.57
2018-04-08T01:30:09.590Z,51.67
2018-04-08T01:31:09.601Z,51.95
2018-04-08T01:32:09.704Z,51.57
2018-04-08T01:33:09.616Z,52.05
2018-04-08T01:34:09.631Z,52.15
2018-04-08T01:35:09.635Z,52.05
2018-04-08T01:36:09.654Z,51.76
2018-04-08T01:37:09.656Z,51.95
2018-04-08T01:38:09.682Z,52.03
2018-04-08T01:39:09.682Z,52.40
2018-04-08T01:40:09.688Z,52.50
2018-04-08T01:41:09.704Z,52.22
2018-04-08T01:42:09.771Z,52.24
2018-04-08T01:43:09.720Z,52.03
2018-04-08T01:44:09.722Z,52.50
2018-04-08T01:45:09.737Z,52.40
2018-04-08T01:46:09.782Z,52.31
2018-04-08T01:47:09.753Z,52.50
2018-04-08T01:48:09.759Z,52.31
2018-04-08T01:49:09.769Z,52.22
2018-04-08T01:50:09.785Z,52.22
2018-04-08T01:51:09.787Z,51.93
2018-04-08T01:52:09.798Z,51.74
2018-04-08T01:53:09.807Z,51.83
2018-04-08T01:54:09.814Z,51.74
2018-04-08T01:55:09.844Z,51.93
2018-04-08T01:56:09.839Z,52.03
2018-04-08T01:57:09.844Z,51.74
2018-04-08T01:58:09.852Z,51.93
2018-04-08T01:59:09.863Z,52.31
2018-04-08T02:00:09.887Z,52.69
2018-04-08T02:01:09.883Z,52.69
2018-04-08T02:02:09.893Z,53.08
2018-04-08T02:03:09.929Z,53.08
2018-04-08T02:04:09.919Z,52.98
2018-04-08T02:05:09.961Z,52.98
2018-04-08T02:06:09.925Z,53.08
2018-04-08T02:07:09.935Z,53.45
2018-04-08T02:08:09.950Z,53.45
2018-04-08T02:09:09.958Z,53.17
2018-04-08T02:10:09.963Z,52.79
2018-04-08T02:11:09.977Z,53.17
2018-04-08T02:12:09.987Z,53.17
2018-04-08T02:13:09.996Z,53.36
2018-04-08T02:14:10.010Z,53.36
2018-04-08T02:15:10.861Z,53.17
2018-04-08T02:16:10.026Z,53.08
2018-04-08T02:17:10.043Z,53.93
2018-04-08T02:18:10.052Z,53.55
2018-04-08T02:19:10.057Z,53.45
2018-04-08T02:20:10.149Z,54.03
2018-04-08T02:21:10.069Z,53.84
2018-04-08T02:22:10.080Z,53.45
2018-04-08T02:23:10.087Z,54.13
2018-04-08T02:24:10.096Z,53.93
2018-04-08T02:25:10.102Z,54.41
2018-04-08T02:26:10.114Z,54.41
2018-04-08T02:27:10.122Z,54.03
2018-04-08T02:28:10.132Z,54.13
2018-04-08T02:29:10.143Z,54.19
2018-04-08T02:30:10.203Z,54.29
2018-04-08T02:31:10.163Z,54.19
2018-04-08T02:32:10.176Z,54.38
2018-04-08T02:33:10.180Z,54.29
2018-04-08T02:34:10.195Z,54.38
2018-04-08T02:35:10.199Z,54.38
2018-04-08T02:36:10.201Z,54.29
2018-04-08T02:37:10.224Z,54.19
2018-04-08T02:38:10.226Z,53.91
2018-04-08T02:39:10.228Z,54.29
2018-04-08T02:40:10.249Z,54.19
2018-04-08T02:41:10.256Z,54.38
2018-04-08T02:42:10.264Z,54.48
2018-04-08T02:43:10.289Z,54.38
2018-04-08T02:44:10.282Z,54.77
2018-04-08T02:45:10.299Z,54.77
2018-04-08T02:46:10.295Z,54.96
2018-04-08T02:47:10.310Z,54.67
2018-04-08T02:48:10.312Z,54.77
2018-04-08T02:49:10.323Z,54.86
2018-04-08T02:50:10.354Z,54.67
2018-04-08T02:51:10.343Z,54.77
2018-04-08T02:52:10.347Z,55.05
2018-04-08T02:53:10.453Z,55.05
2018-04-08T02:54:10.370Z,54.86
2018-04-08T02:55:10.386Z,55.15
2018-04-08T02:56:10.390Z,54.86
2018-04-08T02:57:10.398Z,54.86
2018-04-08T02:58:10.405Z,55.34
2018-04-08T02:59:10.409Z,55.05
2018-04-08T03:00:10.437Z,55.24
2018-04-08T03:01:10.435Z,55.34
2018-04-08T03:02:10.437Z,55.62
2018-04-08T03:03:10.528Z,55.41
2018-04-08T03:04:10.456Z,55.91
2018-04-08T03:05:10.471Z,55.91
2018-04-08T03:06:10.483Z,55.82
2018-04-08T03:07:10.481Z,55.69
2018-04-08T03:08:10.513Z,55.82
2018-04-08T03:09:10.503Z,55.41
2018-04-08T03:10:10.518Z,55.79
2018-04-08T03:11:10.527Z,55.79
2018-04-08T03:12:10.529Z,55.60
2018-04-08T03:13:10.585Z,55.60
2018-04-08T03:14:10.554Z,55.60
2018-04-08T03:15:10.557Z,55.79
2018-04-08T03:16:10.564Z,55.88
2018-04-08T03:17:10.570Z,55.82
2018-04-08T03:18:11.374Z,55.69
2018-04-08T03:19:10.588Z,55.79
2018-04-08T03:20:10.602Z,55.98
2018-04-08T03:21:10.612Z,56.17
2018-04-08T03:22:10.618Z,55.88
2018-04-08T03:23:10.637Z,56.17
2018-04-08T03:24:10.640Z,55.69
2018-04-08T03:25:10.649Z,55.79
2018-04-08T03:26:10.652Z,56.46
2018-04-08T03:27:10.660Z,56.36
2018-04-08T03:28:10.668Z,56.46
2018-04-08T03:29:10.684Z,56.36
2018-04-08T03:30:10.691Z,56.26
2018-04-08T03:31:10.741Z,56.55
2018-04-08T03:32:10.716Z,56.26
2018-04-08T03:33:10.718Z,56.17
2018-04-08T03:34:10.729Z,56.17
2018-04-08T03:35:10.731Z,56.84
2018-04-08T03:36:10.738Z,56.36
2018-04-08T03:37:10.746Z,56.84
2018-04-08T03:38:10.779Z,57.12
2018-04-08T03:39:10.770Z,56.71
2018-04-08T03:40:10.777Z,56.81
2018-04-08T03:41:10.798Z,57.00
2018-04-08T03:42:10.801Z,56.90
2018-04-08T03:43:10.798Z,57.19
2018-04-08T03:44:10.812Z,56.90
2018-04-08T03:45:10.816Z,57.48
2018-04-08T03:46:10.832Z,57.48
2018-04-08T03:47:10.834Z,57.48
2018-04-08T03:48:10.849Z,57.57
2018-04-08T03:49:10.851Z,57.86
2018-04-08T03:50:10.856Z,57.48
2018-04-08T03:51:10.954Z,57.48
2018-04-08T03:52:10.877Z,57.67
2018-04-08T03:53:10.884Z,57.57
2018-04-08T03:54:10.891Z,57.57
2018-04-08T03:55:10.902Z,57.48
2018-04-08T03:56:10.910Z,57.28
2018-04-08T03:57:10.924Z,57.48
2018-04-08T03:58:10.922Z,57.48
2018-04-08T03:59:10.941Z,57.48
2018-04-08T04:00:10.955Z,57.67
2018-04-08T04:01:10.959Z,57.67
2018-04-08T04:02:10.966Z,57.67
2018-04-08T04:03:10.966Z,57.57
2018-04-08T04:04:10.975Z,57.38
2018-04-08T04:05:10.990Z,57.57
2018-04-08T04:06:11.884Z,57.28
2018-04-08T04:07:11.003Z,57.22
2018-04-08T04:08:11.008Z,57.70
2018-04-08T04:09:11.020Z,57.38
2018-04-08T04:10:11.029Z,57.67
2018-04-08T04:11:11.033Z,57.76
2018-04-08T04:12:11.046Z,57.95
2018-04-08T04:13:11.055Z,58.24
2018-04-08T04:14:11.065Z,57.76
2018-04-08T04:15:11.113Z,58.04
2018-04-08T04:16:11.089Z,57.95
2018-04-08T04:17:11.101Z,58.62
2018-04-08T04:18:11.112Z,58.52
2018-04-08T04:19:11.472Z,58.52
2018-04-08T04:20:11.291Z,58.43
2018-04-08T04:21:11.127Z,58.81
2018-04-08T04:22:11.182Z,58.52
2018-04-08T04:23:11.161Z,58.62
2018-04-08T04:24:11.168Z,58.52
2018-04-08T04:25:11.163Z,58.62
2018-04-08T04:26:11.170Z,58.62
2018-04-08T04:27:11.182Z,58.62
2018-04-08T04:28:11.212Z,58.52
2018-04-08T04:29:11.232Z,58.72
2018-04-08T04:30:11.230Z,58.62
2018-04-08T04:31:11.232Z,58.62
2018-04-08T04:32:11.231Z,58.81
2018-04-08T04:33:11.226Z,58.81
2018-04-08T04:34:11.278Z,58.52
2018-04-08T04:35:11.515Z,58.81
2018-04-08T04:36:11.276Z,58.81
2018-04-08T04:37:11.383Z,58.72
2018-04-08T04:38:11.520Z,59.19
2018-04-08T04:39:11.545Z,58.81
2018-04-08T04:40:11.534Z,58.62
2018-04-08T04:41:11.381Z,58.43
2018-04-08T04:42:11.507Z,58.62
2018-04-08T04:43:11.348Z,59.28
2018-04-08T04:44:11.313Z,58.72
2018-04-08T04:45:11.329Z,58.72
2018-04-08T04:46:11.333Z,58.72
2018-04-08T04:47:11.332Z,59.09
2018-04-08T04:48:11.344Z,59.00
2018-04-08T04:49:11.373Z,59.38
2018-04-08T04:50:11.363Z,58.81
2018-04-08T04:51:11.418Z,59.09
2018-04-08T04:52:11.379Z,59.19
2018-04-08T04:53:11.390Z,59.28
2018-04-08T04:54:11.396Z,59.09
2018-04-08T04:55:11.402Z,59.09
2018-04-08T04:56:11.410Z,59.28
2018-04-08T04:57:11.453Z,58.91
2018-04-08T04:58:11.449Z,58.72
2018-04-08T04:59:11.497Z,59.28
2018-04-08T05:00:11.511Z,59.00
2018-04-08T05:01:11.487Z,58.81
2018-04-08T05:02:11.458Z,59.06
2018-04-08T05:03:11.472Z,59.09
2018-04-08T05:04:11.474Z,59.09
2018-04-08T05:05:11.482Z,59.19
2018-04-08T05:06:11.492Z,59.28
2018-04-08T05:07:11.573Z,58.91
2018-04-08T05:08:11.514Z,59.09
2018-04-08T05:09:11.514Z,59.28
2018-04-08T05:10:11.534Z,59.00
2018-04-08T05:11:11.536Z,59.19
2018-04-08T05:12:11.540Z,59.38
2018-04-08T05:13:11.542Z,59.19
2018-04-08T05:14:11.554Z,59.09
2018-04-08T05:15:11.564Z,59.19
2018-04-08T05:16:11.573Z,59.09
2018-04-08T05:17:11.577Z,58.91
2018-04-08T05:18:11.607Z,59.19
2018-04-08T05:19:11.599Z,59.19
2018-04-08T05:20:11.604Z,59.00
2018-04-08T05:21:11.624Z,59.09
2018-04-08T05:22:11.626Z,58.72
2018-04-08T05:23:11.655Z,58.52
2018-04-08T05:24:11.642Z,58.72
2018-04-08T05:25:11.648Z,58.62
2018-04-08T05:26:11.656Z,59.00
2018-04-08T05:27:11.667Z,58.81
2018-04-08T05:28:11.678Z,59.00
2018-04-08T05:29:11.673Z,58.62
2018-04-08T05:30:11.686Z,58.72
2018-04-08T05:31:11.692Z,58.43
2018-04-08T05:32:11.701Z,58.72
2018-04-08T05:33:11.704Z,58.52
2018-04-08T05:34:11.716Z,58.81
2018-04-08T05:35:11.722Z,58.52
2018-04-08T05:36:11.746Z,58.52
2018-04-08T05:37:11.741Z,58.72
2018-04-08T05:38:11.748Z,58.72
2018-04-08T05:39:11.757Z,58.75
2018-04-08T05:40:11.764Z,58.62
2018-04-08T05:41:11.772Z,58.26
2018-04-08T05:42:11.784Z,58.36
2018-04-08T05:43:11.796Z,58.26
2018-04-08T05:44:11.800Z,58.36
2018-04-08T05:45:11.806Z,58.46
2018-04-08T05:46:11.817Z,58.65
2018-04-08T05:47:11.822Z,58.26
2018-04-08T05:48:11.875Z,58.46
2018-04-08T05:49:11.837Z,58.07
2018-04-08T05:50:11.846Z,58.07
2018-04-08T05:51:11.869Z,58.07
2018-04-08T05:52:11.875Z,58.26
2018-04-08T05:53:11.877Z,58.17
2018-04-08T05:54:11.885Z,58.26
2018-04-08T05:55:11.885Z,58.17
2018-04-08T05:56:11.897Z,57.89
2018-04-08T05:57:11.903Z,57.98
2018-04-08T05:58:11.965Z,58.07
2018-04-08T05:59:11.922Z,57.98
2018-04-08T06:00:11.933Z,57.89
2018-04-08T06:01:11.942Z,57.98
2018-04-08T06:02:11.943Z,57.89
2018-04-08T06:03:11.956Z,57.89
2018-04-08T06:04:11.959Z,58.17
2018-04-08T06:05:11.969Z,58.17
2018-04-08T06:06:11.974Z,58.26
2018-04-08T06:07:11.985Z,57.98
2018-04-08T06:08:11.999Z,58.17
2018-04-08T06:09:12.002Z,57.98
2018-04-08T06:10:12.062Z,58.26
2018-04-08T06:11:12.066Z,58.46
2018-04-08T06:12:12.027Z,57.98
2018-04-08T06:13:12.034Z,57.98
2018-04-08T06:14:12.044Z,58.17
2018-04-08T06:15:12.049Z,57.98
2018-04-08T06:16:12.071Z,58.07
2018-04-08T06:17:12.075Z,57.98
2018-04-08T06:18:12.089Z,58.07
2018-04-08T06:19:12.081Z,58.55
2018-04-08T06:20:12.108Z,58.36
2018-04-08T06:21:12.140Z,58.55
2018-04-08T06:22:12.116Z,58.55
2018-04-08T06:23:12.126Z,58.07
2018-04-08T06:24:12.137Z,58.07
2018-04-08T06:25:12.139Z,58.26
2018-04-08T06:26:12.157Z,58.20
2018-04-08T06:27:12.148Z,57.92
2018-04-08T06:28:12.159Z,57.53
2018-04-08T06:29:12.180Z,57.72
2018-04-08T06:30:12.187Z,57.53
2018-04-08T06:31:12.183Z,57.63
2018-04-08T06:32:12.193Z,57.53
2018-04-08T06:33:12.203Z,57.34
2018-04-08T06:34:12.219Z,57.43
2018-04-08T06:35:12.222Z,57.43
2018-04-08T06:36:12.914Z,57.43
2018-04-08T06:37:12.237Z,57.15
2018-04-08T06:38:12.242Z,57.53
2018-04-08T06:39:12.250Z,57.06
2018-04-08T06:40:12.264Z,56.96
2018-04-08T06:41:12.292Z,57.34
2018-04-08T06:42:12.294Z,57.06
2018-04-08T06:43:12.308Z,56.87
2018-04-08T06:44:12.306Z,56.87
2018-04-08T06:45:12.315Z,56.77
2018-04-08T06:46:12.404Z,56.96
2018-04-08T06:47:12.326Z,56.87
2018-04-08T06:48:12.330Z,56.77
2018-04-08T06:49:12.338Z,56.77
2018-04-08T06:50:12.355Z,56.87
2018-04-08T06:51:12.353Z,56.77
2018-04-08T06:52:12.364Z,56.77
2018-04-08T06:53:12.373Z,57.06
2018-04-08T06:54:12.380Z,57.15
2018-04-08T06:55:12.384Z,57.34
2018-04-08T06:56:12.397Z,57.24
2018-04-08T06:57:12.409Z,57.06
2018-04-08T06:58:12.418Z,57.53
2018-04-08T06:59:12.446Z,57.53
2018-04-08T07:00:12.432Z,57.24
2018-04-08T07:01:12.441Z,57.43
2018-04-08T07:02:12.446Z,57.63
2018-04-08T07:03:12.456Z,57.34
2018-04-08T07:04:12.474Z,57.56
2018-04-08T07:05:12.496Z,57.46
2018-04-08T07:06:12.490Z,57.56
2018-04-08T07:07:12.493Z,57.18
2018-04-08T07:08:12.500Z,57.37
2018-04-08T07:09:12.533Z,56.99
2018-04-08T07:10:12.546Z,57.09
2018-04-08T07:11:12.527Z,56.99
2018-04-08T07:12:12.534Z,56.51
2018-04-08T07:13:12.540Z,56.32
2018-04-08T07:14:12.552Z,56.60
2018-04-08T07:15:12.562Z,56.06
2018-04-08T07:16:12.575Z,56.41
2018-04-08T07:17:12.584Z,56.45
2018-04-08T07:18:12.588Z,56.35
2018-04-08T07:19:13.431Z,56.45
2018-04-08T07:20:12.601Z,56.35
2018-04-08T07:21:12.614Z,56.45
2018-04-08T07:22:12.620Z,56.35
2018-04-08T07:23:12.631Z,56.45
2018-04-08T07:24:12.754Z,56.54
2018-04-08T07:25:12.652Z,56.63
2018-04-08T07:26:12.660Z,56.06
2018-04-08T07:27:12.668Z,56.63
2018-04-08T07:28:12.683Z,56.06
2018-04-08T07:29:12.690Z,56.16
2018-04-08T07:30:12.701Z,56.09
2018-04-08T07:31:12.716Z,55.80
2018-04-08T07:32:12.708Z,55.80
2018-04-08T07:33:12.721Z,55.90
2018-04-08T07:34:12.728Z,55.52
2018-04-08T07:35:12.737Z,55.42
2018-04-08T07:36:12.749Z,55.42
2018-04-08T07:37:12.787Z,55.52
2018-04-08T07:38:12.764Z,55.42
2018-04-08T07:39:12.772Z,55.71
2018-04-08T07:40:12.792Z,55.74
2018-04-08T07:41:12.799Z,55.16
2018-04-08T07:42:12.807Z,54.59
2018-04-08T07:43:12.815Z,54.88
2018-04-08T07:44:12.831Z,55.07
2018-04-08T07:45:12.834Z,55.07
2018-04-08T07:46:12.843Z,54.68
2018-04-08T07:47:12.867Z,54.59
2018-04-08T07:48:12.860Z,54.02
2018-04-08T07:49:12.872Z,54.02
2018-04-08T07:50:12.881Z,53.63
2018-04-08T07:51:12.892Z,53.53
2018-04-08T07:52:12.897Z,53.56
2018-04-08T07:53:12.904Z,53.37
2018-04-08T07:54:12.915Z,53.56
2018-04-08T07:55:12.935Z,53.18
2018-04-08T07:56:12.943Z,52.80
2018-04-08T07:57:12.956Z,52.70
2018-04-08T07:58:12.957Z,52.54
2018-04-08T07:59:13.008Z,52.06
2018-04-08T08:00:12.982Z,52.15
2018-04-08T08:01:12.989Z,51.97
2018-04-08T08:02:13.000Z,52.34
2018-04-08T08:03:13.005Z,51.97
2018-04-08T08:04:13.016Z,51.20
2018-04-08T08:05:13.030Z,51.01
2018-04-08T08:06:13.036Z,51.70
2018-04-08T08:07:13.190Z,51.22
2018-04-08T08:08:13.082Z,51.42
2018-04-08T08:09:13.067Z,51.03
2018-04-08T08:10:13.088Z,50.74
2018-04-08T08:11:13.147Z,50.74
2018-04-08T08:12:13.103Z,50.26
2018-04-08T08:13:13.114Z,50.65
2018-04-08T08:14:13.124Z,50.20
2018-04-08T08:15:13.140Z,50.96
2018-04-08T08:16:13.152Z,50.48
2018-04-08T08:17:13.148Z,50.48
2018-04-08T08:18:13.202Z,50.58
2018-04-08T08:19:13.184Z,50.20
2018-04-08T08:20:13.186Z,48.95
2018-04-08T08:21:13.192Z,49.14
2018-04-08T08:22:13.940Z,49.33
2018-04-08T08:23:13.225Z,49.33
2018-04-08T08:24:13.232Z,49.52
2018-04-08T08:25:13.243Z,49.91
2018-04-08T08:26:13.252Z,49.33
2018-04-08T08:28:13.278Z,49.43
2018-04-08T08:29:13.286Z,49.05
2018-04-08T08:30:13.293Z,49.14
2018-04-08T08:31:13.303Z,49.62
2018-04-08T08:32:13.317Z,49.88
2018-04-08T08:33:13.332Z,49.81
2018-04-08T08:34:13.347Z,49.79
2018-04-08T08:35:13.385Z,50.10
2018-04-08T08:36:13.375Z,50.00
2018-04-08T08:37:13.373Z,50.10
2018-04-08T08:38:13.400Z,49.91
2018-04-08T08:39:13.396Z,49.79
2018-04-08T08:40:13.408Z,49.88
2018-04-08T08:41:13.423Z,49.98
2018-04-08T08:42:13.426Z,50.00
2018-04-08T08:43:13.431Z,49.52
2018-04-08T08:44:13.452Z,49.81
2018-04-08T08:45:13.495Z,50.20
2018-04-08T08:46:13.484Z,50.10
2018-04-08T08:47:13.480Z,50.00
2018-04-08T08:48:13.495Z,49.81
2018-04-08T08:50:13.535Z,49.81
2018-04-08T08:51:13.532Z,48.75
2018-04-08T08:52:13.539Z,49.14
2018-04-08T08:53:13.546Z,49.33
2018-04-08T08:54:13.572Z,49.14
2018-04-08T08:55:13.652Z,49.05
2018-04-08T08:56:13.678Z,49.05
2018-04-08T08:57:13.720Z,48.38
2018-04-08T08:58:13.613Z,48.66
2018-04-08T08:59:13.608Z,48.75
2018-04-08T09:00:13.626Z,48.75
2018-04-08T09:01:13.638Z,48.97
2018-04-08T09:02:13.642Z,49.26
2018-04-08T09:03:13.670Z,48.78
2018-04-08T09:04:13.666Z,48.85
2018-04-08T09:05:13.676Z,48.75
2018-04-08T09:06:13.687Z,48.78
2018-04-08T09:07:13.699Z,49.07
2018-04-08T09:08:13.751Z,49.07
2018-04-08T09:09:13.823Z,48.97
2018-04-08T09:10:13.740Z,48.78
2018-04-08T09:11:13.756Z,48.97
2018-04-08T09:12:13.766Z,48.97
2018-04-08T09:13:13.773Z,48.88
2018-04-08T09:14:13.810Z,48.97
2018-04-08T09:15:13.893Z,48.97
2018-04-08T09:16:13.803Z,49.16
2018-04-08T09:17:13.810Z,48.97
2018-04-08T09:18:13.835Z,48.88
2018-04-08T09:19:13.834Z,48.78
2018-04-08T09:20:13.996Z,48.49
2018-04-08T09:21:13.859Z,48.30
2018-04-08T09:22:13.867Z,48.69
2018-04-08T09:23:13.899Z,48.97
2018-04-08T09:24:13.898Z,49.26
2018-04-08T09:25:13.921Z,49.36
2018-04-08T09:26:13.910Z,48.21
2018-04-08T09:27:13.925Z,48.21
2018-04-08T09:28:13.957Z,48.33
2018-04-08T09:29:13.946Z,48.52
2018-04-08T09:30:14.461Z,47.66
2018-04-08T09:31:13.986Z,47.94
2018-04-08T09:32:14.961Z,48.33
2018-04-08T09:33:13.986Z,48.13
2018-04-08T09:34:14.007Z,48.52
2018-04-08T09:35:14.015Z,48.23
2018-04-08T09:36:14.041Z,48.52
2018-04-08T09:37:14.040Z,47.85
2018-04-08T09:38:14.060Z,47.77
2018-04-08T09:39:14.067Z,47.97
2018-04-08T09:40:14.159Z,47.87
2018-04-08T09:41:14.084Z,47.97
2018-04-08T09:42:14.101Z,47.58
2018-04-08T09:43:14.123Z,47.97
2018-04-08T09:44:14.157Z,47.68
2018-04-08T09:45:14.142Z,48.35
2018-04-08T09:46:14.142Z,47.39
2018-04-08T09:47:14.195Z,46.81
2018-04-08T09:48:14.173Z,47.49
2018-04-08T09:49:14.181Z,47.20
2018-04-08T09:50:14.289Z,47.30
2018-04-08T09:51:14.202Z,47.39
2018-04-08T09:52:14.215Z,47.22
2018-04-08T09:53:14.259Z,46.94
2018-04-08T09:54:14.234Z,47.61
2018-04-08T09:55:14.251Z,46.07
2018-04-08T09:56:14.265Z,46.07
2018-04-08T09:57:14.280Z,46.26
2018-04-08T09:58:14.286Z,46.36
2018-04-08T09:59:14.313Z,47.32
2018-04-08T10:00:14.316Z,46.74
2018-04-08T10:01:14.321Z,47.41
2018-04-08T10:02:14.336Z,46.65
2018-04-08T10:03:14.356Z,46.55
2018-04-08T10:04:14.359Z,46.74
2018-04-08T10:05:14.975Z,46.45
2018-04-08T10:06:14.387Z,46.58
2018-04-08T10:07:14.400Z,46.55
2018-04-08T10:08:14.405Z,46.26
2018-04-08T10:09:14.417Z,46.07
2018-04-08T10:10:14.450Z,46.07
2018-04-08T10:11:14.496Z,46.09
2018-04-08T10:12:14.458Z,46.48
2018-04-08T10:13:14.469Z,46.19
2018-04-08T10:14:14.494Z,46.48
2018-04-08T10:15:14.506Z,46.09
2018-04-08T10:16:14.505Z,46.28
2018-04-08T10:17:14.518Z,46.38
2018-04-08T10:18:14.524Z,46.19
2018-04-08T10:19:14.539Z,45.83
2018-04-08T10:20:14.551Z,45.83
2018-04-08T10:21:14.590Z,46.21
2018-04-08T10:22:14.575Z,45.28
2018-04-08T10:23:14.627Z,45.15
2018-04-08T10:24:14.613Z,45.92
2018-04-08T10:25:14.725Z,45.25
2018-04-08T10:26:14.635Z,46.31
2018-04-08T10:27:14.648Z,45.37
2018-04-08T10:28:14.663Z,44.79
2018-04-08T10:29:14.729Z,44.89
2018-04-08T10:30:14.698Z,44.89
2018-04-08T10:31:14.691Z,44.89
2018-04-08T10:32:14.706Z,44.41
2018-04-08T10:33:14.716Z,44.41
2018-04-08T10:34:14.732Z,45.01
2018-04-08T10:35:14.769Z,45.01
2018-04-08T10:36:14.768Z,44.91
2018-04-08T10:37:14.791Z,44.91
2018-04-08T10:38:14.852Z,44.91
2018-04-08T10:39:14.812Z,44.99
2018-04-08T10:40:14.815Z,44.12
2018-04-08T10:41:14.827Z,44.31
2018-04-08T10:42:14.858Z,44.31
2018-04-08T10:43:14.851Z,44.02
2018-04-08T10:44:14.914Z,44.79
2018-04-08T10:45:14.882Z,45.01
2018-04-08T10:46:14.892Z,44.34
2018-04-08T10:47:14.906Z,44.53
2018-04-08T10:48:14.914Z,44.26
2018-04-08T10:49:14.941Z,43.76
2018-04-08T10:50:14.944Z,43.88
2018-04-08T10:51:15.014Z,43.49
2018-04-08T10:52:15.016Z,43.78
2018-04-08T10:53:15.015Z,43.11
2018-04-08T10:54:14.999Z,42.84
2018-04-08T10:55:15.029Z,42.46
2018-04-08T10:56:15.030Z,41.97
2018-04-08T10:57:15.048Z,42.36
2018-04-08T10:58:15.102Z,42.65
2018-04-08T10:59:15.071Z,41.97
2018-04-08T11:00:15.103Z,42.26
2018-04-08T11:01:15.117Z,41.71
2018-04-08T11:02:15.109Z,42.09
2018-04-08T11:03:15.169Z,41.41
2018-04-08T11:04:15.144Z,40.86
2018-04-08T11:05:15.164Z,40.95
2018-04-08T11:06:15.180Z,40.47
2018-04-08T11:07:15.196Z,40.47
2018-04-08T11:08:15.230Z,40.76
2018-04-08T11:09:15.269Z,40.69
2018-04-08T11:10:15.272Z,39.94
2018-04-08T11:11:15.260Z,39.26
2018-04-08T11:12:15.289Z,39.26
2018-04-08T11:13:15.311Z,38.70
2018-04-08T11:14:15.314Z,38.60
2018-04-08T11:15:15.341Z,36.96
2018-04-08T11:16:15.366Z,36.80
2018-04-08T11:17:15.377Z,36.71
2018-04-08T11:18:15.417Z,36.42
2018-04-08T11:19:15.416Z,35.84
2018-04-08T11:20:15.429Z,36.34
2018-04-08T11:21:15.458Z,35.37
2018-04-08T11:22:15.478Z,35.18
2018-04-08T11:23:15.497Z,35.08
2018-04-08T11:24:15.546Z,34.62
2018-04-08T11:25:15.551Z,34.81
2018-04-08T11:26:15.561Z,34.13
2018-04-08T11:27:15.583Z,33.92
2018-04-08T11:28:15.601Z,33.65
2018-04-08T11:29:15.630Z,34.04
2018-04-08T11:30:15.650Z,33.47
2018-04-08T11:31:15.673Z,33.67
2018-04-08T11:32:15.701Z,32.51
2018-04-08T11:33:15.709Z,32.12
2018-04-08T11:34:15.742Z,31.63
2018-04-08T11:35:15.762Z,31.25
2018-04-08T11:36:15.771Z,31.25
2018-04-08T11:37:15.800Z,31.54
2018-04-08T11:38:15.847Z,31.44
2018-04-08T11:39:15.851Z,30.18
2018-04-08T11:40:15.873Z,31.07
2018-04-08T11:41:15.948Z,31.16
2018-04-08T11:42:16.521Z,30.58
2018-04-08T11:43:15.936Z,30.00
2018-04-08T11:44:15.965Z,29.43
2018-04-08T11:45:15.981Z,29.92
2018-04-08T11:46:16.015Z,30.11
2018-04-08T11:47:16.083Z,29.24
2018-04-08T11:48:16.051Z,28.47
2018-04-08T11:49:16.087Z,29.15
2018-04-08T11:50:16.107Z,29.34
2018-04-08T11:51:16.151Z,28.28
2018-04-08T11:52:16.193Z,28.49
2018-04-08T11:53:16.169Z,28.11
2018-04-08T11:54:16.199Z,28.59
2018-04-08T11:55:16.241Z,27.92
2018-04-08T11:56:16.243Z,27.72
2018-04-08T11:57:16.285Z,27.35
2018-04-08T11:58:16.287Z,27.73
2018-04-08T11:59:16.305Z,27.73
2018-04-08T12:00:16.337Z,27.25
2018-04-08T12:01:16.360Z,27.35
2018-04-08T12:02:16.389Z,26.39
2018-04-08T12:03:16.404Z,25.70
2018-04-08T12:04:16.437Z,25.90
2018-04-08T12:05:16.448Z,26.28
2018-04-08T12:06:16.489Z,25.89
2018-04-08T12:07:16.501Z,26.09
2018-04-08T12:08:16.524Z,25.60
2018-04-08T12:09:16.555Z,24.83
2018-04-08T12:10:16.581Z,24.26
2018-04-08T12:11:16.591Z,24.35
2018-04-08T12:12:16.629Z,24.05
2018-04-08T12:13:16.648Z,23.55
2018-04-08T12:14:16.666Z,24.73
2018-04-08T12:15:16.715Z,23.38
2018-04-08T12:16:16.719Z,23.95
2018-04-08T12:17:16.738Z,23.68
2018-04-08T12:18:16.772Z,24.55
2018-04-08T12:19:16.819Z,23.37
2018-04-08T12:20:16.820Z,23.38
2018-04-08T12:21:16.836Z,22.22
2018-04-08T12:22:16.865Z,21.25
2018-04-08T12:23:16.892Z,20.75
2018-04-08T12:24:16.923Z,22.02
2018-04-08T12:25:16.944Z,23.19
2018-04-08T12:26:17.005Z,22.33
2018-04-08T12:27:16.988Z,22.13
2018-04-08T12:28:17.002Z,22.03
2018-04-08T12:29:17.034Z,22.81
2018-04-08T12:30:17.061Z,22.03
2018-04-08T12:31:17.116Z,22.53
2018-04-08T12:32:17.109Z,21.27
2018-04-08T12:33:17.144Z,21.47
2018-04-08T12:34:17.150Z,21.47
2018-04-08T12:35:17.177Z,21.00
2018-04-08T12:36:17.209Z,20.90
2018-04-08T12:37:17.262Z,22.07
2018-04-08T12:38:17.255Z,21.19
2018-04-08T12:39:17.277Z,21.57
2018-04-08T12:40:17.305Z,22.07
2018-04-08T12:41:17.323Z,22.07
2018-04-08T12:42:17.344Z,21.39
2018-04-08T12:43:17.365Z,20.32
2018-04-08T12:44:17.393Z,20.11
2018-04-08T12:45:17.428Z,19.73
2018-04-08T12:46:17.458Z,20.51
2018-04-08T12:47:17.470Z,20.80
2018-04-08T12:48:17.506Z,20.14
2018-04-08T12:49:17.530Z,20.52
2018-04-08T12:50:17.542Z,20.81
2018-04-08T12:51:17.593Z,19.85
2018-04-08T12:52:17.597Z,20.14
2018-04-08T12:53:17.623Z,18.10
2018-04-08T12:54:17.649Z,18.11